createdAt,value
2023-04-12T00:00:26.778Z,9.07
2023-04-12T00:05:57.733Z,9.01
2023-04-12T00:11:03.504Z,8.93
2023-04-12T00:16:07.801Z,8.85
2023-04-12T00:21:11.767Z,8.79
2023-04-12T00:26:16.308Z,8.70
2023-04-12T00:31:19.815Z,8.65
2023-04-12T00:36:23.436Z,8.64
2023-04-12T00:41:27.572Z,8.60
2023-04-12T00:46:32.674Z,8.37
2023-04-12T00:51:38.192Z,8.17
2023-04-12T00:56:41.938Z,8.07
2023-04-12T01:01:45.731Z,8.04
2023-04-12T01:07:08.182Z,8.02
2023-04-12T01:12:30.125Z,7.97
2023-04-12T01:17:39.522Z,7.92
2023-04-12T01:23:07.362Z,7.86
2023-04-12T01:28:15.186Z,7.81
2023-04-12T01:33:21.306Z,7.87
2023-04-12T01:38:25.181Z,7.99
2023-04-12T01:43:28.597Z,8.13
2023-04-12T01:48:32.113Z,8.27
2023-04-12T01:53:38.189Z,8.43
2023-04-12T01:58:44.263Z,8.55
2023-04-12T02:03:52.182Z,8.63
2023-04-12T02:09:03.376Z,8.72
2023-04-12T02:14:06.793Z,8.68
2023-04-12T02:19:10.871Z,8.61
2023-04-12T02:24:15.149Z,8.65
2023-04-12T02:29:18.363Z,8.74
2023-04-12T02:34:22.900Z,8.81
2023-04-12T02:39:26.543Z,8.89
2023-04-12T02:44:31.391Z,8.98
2023-04-12T02:49:34.675Z,9.03
2023-04-12T02:54:39.622Z,9.09
2023-04-12T02:59:43.344Z,9.17
2023-04-12T03:04:47.412Z,9.28
2023-04-12T03:09:51.875Z,9.38
2023-04-12T03:14:55.732Z,9.21
2023-04-12T03:20:09.935Z,9.21
2023-04-12T03:25:13.410Z,9.44
2023-04-12T03:30:17.037Z,9.54
2023-04-12T03:35:20.555Z,9.58
2023-04-12T03:40:23.955Z,9.69
2023-04-12T03:45:27.996Z,9.76
2023-04-12T03:50:32.220Z,9.76
2023-04-12T03:55:37.780Z,9.61
2023-04-12T04:00:41.090Z,9.50
2023-04-12T04:05:44.708Z,9.49
2023-04-12T04:10:48.330Z,9.49
2023-04-12T04:15:57.189Z,9.50
2023-04-12T04:21:00.791Z,9.48
2023-04-12T04:26:06.473Z,9.50
2023-04-12T04:31:10.907Z,9.51
2023-04-12T04:36:16.196Z,9.52
2023-04-12T04:41:23.043Z,9.59
2023-04-12T04:46:30.655Z,9.77
2023-04-12T04:51:34.185Z,9.87
2023-04-12T04:56:37.585Z,10.03
2023-04-12T05:01:41.621Z,10.09
2023-04-12T05:06:46.674Z,10.11
2023-04-12T05:11:50.192Z,10.13
2023-04-12T05:16:54.443Z,10.23
2023-04-12T05:21:58.539Z,10.26
2023-04-12T05:27:02.262Z,10.37
2023-04-12T05:32:06.235Z,10.54
2023-04-12T05:37:09.566Z,10.68
2023-04-12T05:42:12.955Z,10.93
2023-04-12T05:47:16.632Z,11.25
2023-04-12T05:52:20.056Z,11.53
2023-04-12T05:57:23.553Z,11.74
2023-04-12T06:02:27.756Z,11.93
2023-04-12T06:07:31.310Z,12.10
2023-04-12T06:12:34.828Z,12.14
2023-04-12T06:17:38.692Z,12.30
2023-04-12T06:22:42.273Z,12.55
2023-04-12T06:27:45.608Z,12.83
2023-04-12T06:32:49.102Z,13.15
2023-04-12T06:37:52.602Z,13.28
2023-04-12T06:42:56.784Z,13.38
2023-04-12T06:48:00.143Z,13.58
2023-04-12T06:53:03.790Z,13.73
2023-04-12T06:58:07.688Z,13.76
2023-04-12T07:03:11.192Z,13.58
2023-04-12T07:08:14.824Z,13.45
2023-04-12T07:13:18.341Z,13.36
2023-04-12T07:18:22.080Z,13.49
2023-04-12T07:23:28.340Z,13.75
2023-04-12T07:28:31.808Z,14.16
2023-04-12T07:33:36.896Z,14.44
2023-04-12T07:38:40.834Z,14.47
2023-04-12T07:43:44.253Z,14.53
2023-04-12T07:48:47.765Z,14.56
2023-04-12T07:53:52.114Z,14.64
2023-04-12T07:58:55.655Z,14.75
2023-04-12T08:03:59.455Z,14.77
2023-04-12T08:09:03.053Z,14.61
2023-04-12T08:14:06.464Z,14.37
2023-04-12T08:19:09.979Z,14.44
2023-04-12T08:24:13.521Z,14.63
2023-04-12T08:29:17.219Z,14.84
2023-04-12T08:34:22.691Z,15.01
2023-04-12T08:39:26.294Z,15.06
2023-04-12T08:44:38.324Z,15.17
2023-04-12T08:49:41.719Z,15.48
2023-04-12T08:54:45.316Z,15.79
2023-04-12T08:59:53.108Z,16.11
2023-04-12T09:04:56.913Z,16.45
2023-04-12T09:10:00.504Z,16.52
2023-04-12T09:15:10.458Z,16.52
2023-04-12T09:20:16.652Z,16.50
2023-04-12T09:25:36.799Z,16.59
2023-04-12T09:30:43.410Z,16.60
2023-04-12T09:35:47.773Z,16.63
2023-04-12T09:40:51.303Z,16.90
2023-04-12T09:46:15.014Z,16.96
2023-04-12T09:51:30.107Z,16.82
2023-04-12T09:56:36.081Z,16.84
2023-04-12T10:01:41.400Z,16.82
2023-04-12T10:06:46.190Z,16.90
2023-04-12T10:11:52.209Z,16.96
2023-04-12T10:17:00.232Z,16.85
2023-04-12T10:22:03.588Z,17.22
2023-04-12T10:27:07.292Z,17.42
2023-04-12T10:32:25.895Z,17.73
2023-04-12T10:38:08.415Z,17.76
2023-04-12T10:43:29.214Z,17.69
2023-04-12T10:48:39.680Z,17.64
2023-04-12T10:53:43.607Z,17.75
2023-04-12T10:58:57.132Z,17.73
2023-04-12T11:04:22.023Z,17.88
2023-04-12T11:09:35.303Z,18.26
2023-04-12T11:14:50.302Z,18.77
2023-04-12T11:20:00.015Z,19.17
2023-04-12T11:25:03.673Z,19.40
2023-04-12T11:30:07.606Z,19.35
2023-04-12T11:35:11.009Z,19.34
2023-04-12T11:40:15.246Z,19.31
2023-04-12T11:45:21.940Z,19.15
2023-04-12T11:50:31.387Z,19.07
2023-04-12T11:55:34.956Z,19.20
2023-04-12T12:00:38.726Z,19.15
2023-04-12T12:05:43.003Z,18.99
2023-04-12T12:11:06.264Z,18.65
2023-04-12T12:16:13.454Z,18.69
2023-04-12T12:21:16.958Z,18.60
2023-04-12T12:26:31.118Z,18.68
2023-04-12T12:31:34.558Z,18.66
2023-04-12T12:36:39.168Z,18.70
2023-04-12T12:41:42.746Z,18.81
2023-04-12T12:46:53.438Z,18.78
2023-04-12T12:51:59.048Z,18.73
2023-04-12T12:57:03.846Z,18.66
2023-04-12T13:02:08.186Z,18.77
2023-04-12T13:07:12.157Z,18.93
2023-04-12T13:12:16.581Z,18.99
2023-04-12T13:17:21.264Z,19.17
2023-04-12T13:22:25.871Z,19.26
2023-04-12T13:27:29.363Z,19.35
2023-04-12T13:32:33.051Z,19.36
2023-04-12T13:37:36.716Z,19.52
2023-04-12T13:42:40.352Z,19.83
2023-04-12T13:47:43.871Z,20.17
2023-04-12T13:52:47.423Z,20.70
2023-04-12T13:57:51.009Z,20.97
2023-04-12T14:02:54.540Z,21.39
2023-04-12T14:08:01.855Z,21.93
2023-04-12T14:13:05.533Z,22.21
2023-04-12T14:18:08.949Z,22.26
2023-04-12T14:23:13.034Z,24.22
2023-04-12T14:28:22.127Z,26.22
2023-04-12T14:33:25.736Z,29.04
2023-04-12T14:38:29.150Z,29.16
2023-04-12T14:43:32.979Z,28.03
2023-04-12T14:48:36.490Z,26.77
2023-04-12T14:53:41.049Z,28.21
2023-04-12T14:58:44.509Z,28.18
2023-04-12T15:03:48.148Z,31.94
2023-04-12T15:08:55.318Z,37.57
2023-04-12T15:13:59.466Z,40.24
2023-04-12T15:19:10.002Z,39.58
2023-04-12T15:24:27.415Z,41.90
2023-04-12T15:29:31.340Z,42.40
2023-04-12T15:34:35.582Z,41.50
2023-04-12T15:39:40.210Z,39.48
2023-04-12T15:44:45.573Z,39.36
2023-04-12T15:49:48.891Z,40.02
2023-04-12T15:54:52.392Z,39.89
2023-04-12T15:59:58.057Z,39.41
2023-04-12T16:05:01.620Z,38.98
2023-04-12T16:10:06.535Z,37.64
2023-04-12T16:15:10.554Z,36.10
2023-04-12T16:20:33.558Z,35.57
2023-04-12T16:25:37.140Z,34.43
2023-04-12T16:30:41.094Z,33.93
2023-04-12T16:35:44.588Z,33.35
2023-04-12T16:40:48.311Z,32.74
2023-04-12T16:45:51.930Z,32.53
2023-04-12T16:50:55.542Z,31.51
2023-04-12T16:56:04.901Z,30.66
2023-04-12T17:01:08.522Z,29.22
2023-04-12T17:06:12.260Z,26.63
2023-04-12T17:11:15.855Z,23.85
2023-04-12T17:16:36.390Z,21.48
2023-04-12T17:21:42.857Z,19.50
2023-04-12T17:26:46.794Z,18.06
2023-04-12T17:31:54.272Z,17.15
2023-04-12T17:36:58.624Z,16.19
2023-04-12T17:42:02.241Z,15.43
2023-04-12T17:47:05.747Z,14.84
2023-04-12T17:52:11.242Z,14.38
2023-04-12T17:57:14.624Z,13.83
2023-04-12T18:02:18.083Z,13.30
2023-04-12T18:07:21.760Z,12.82
2023-04-12T18:12:25.280Z,12.35
2023-04-12T18:17:28.935Z,12.09
2023-04-12T18:22:32.719Z,11.75
2023-04-12T18:27:36.374Z,11.40
2023-04-12T18:32:39.888Z,11.12
2023-04-12T18:37:44.287Z,10.88
2023-04-12T18:42:47.805Z,10.67
2023-04-12T18:47:53.218Z,10.49
2023-04-12T18:52:56.685Z,10.30
2023-04-12T18:58:00.259Z,10.19
2023-04-12T19:03:04.199Z,10.06
2023-04-12T19:08:08.154Z,9.90
2023-04-12T19:13:11.796Z,9.65
2023-04-12T19:18:15.288Z,9.49
2023-04-12T19:23:18.895Z,9.35
2023-04-12T19:28:30.814Z,9.22
2023-04-12T19:33:34.643Z,9.21
2023-04-12T19:38:41.676Z,9.20
2023-04-12T19:43:45.147Z,8.92
2023-04-12T19:48:49.060Z,8.79
2023-04-12T19:53:54.929Z,8.70
2023-04-12T19:58:58.861Z,8.64
2023-04-12T20:04:05.839Z,8.55
2023-04-12T20:09:11.649Z,8.46
2023-04-12T20:14:17.144Z,8.37
2023-04-12T20:19:21.110Z,8.29
2023-04-12T20:24:25.855Z,8.25
2023-04-12T20:29:34.847Z,8.26
2023-04-12T20:34:38.459Z,8.26
2023-04-12T20:39:42.237Z,8.29
2023-04-12T20:44:45.856Z,8.30
2023-04-12T20:49:49.373Z,8.24
2023-04-12T20:54:53.808Z,8.13
2023-04-12T20:59:57.325Z,8.06
2023-04-12T21:05:00.840Z,7.99
2023-04-12T21:10:04.638Z,7.99
2023-04-12T21:15:09.587Z,7.97
2023-04-12T21:20:17.018Z,7.88
2023-04-12T21:25:21.565Z,7.82
2023-04-12T21:30:25.079Z,7.78
2023-04-12T21:35:30.482Z,7.73
2023-04-12T21:40:33.851Z,7.72
2023-04-12T21:45:38.978Z,7.76
2023-04-12T21:50:42.417Z,7.84
2023-04-12T21:55:46.046Z,7.92
2023-04-12T22:00:49.375Z,8.05
2023-04-12T22:06:03.440Z,8.13
2023-04-12T22:11:09.797Z,8.19
2023-04-12T22:16:14.162Z,8.16
2023-04-12T22:21:18.058Z,8.15
2023-04-12T22:26:21.569Z,8.20
2023-04-12T22:31:26.483Z,8.23
2023-04-12T22:36:30.006Z,8.16
2023-04-12T22:41:33.956Z,8.17
2023-04-12T22:46:39.171Z,8.12
2023-04-12T22:51:43.342Z,8.03
2023-04-12T22:56:47.287Z,7.96
2023-04-12T23:01:50.870Z,7.92
2023-04-12T23:06:57.680Z,7.92
2023-04-12T23:12:02.058Z,7.85
2023-04-12T23:17:05.940Z,7.79
2023-04-12T23:22:09.368Z,7.73
2023-04-12T23:27:13.377Z,7.72
2023-04-12T23:32:16.789Z,7.66
2023-04-12T23:37:20.305Z,7.55
2023-04-12T23:42:23.719Z,7.35
2023-04-12T23:47:27.439Z,7.20
2023-04-12T23:52:32.695Z,7.14
2023-04-12T23:57:36.109Z,7.13
